Time;durP1;ratioP1;P1;durP2;ratioP2;P2;SDS_P1;SDS_P2;PMS_P1;PMS_P2;Temp;Humidity;BMP_temperature;BMP_pressure;BME280_temperature;BME280_humidity;BME280_pressure;Samples;Min_cycle;Max_cycle;Signal;HPM_P1;HPM_P2
2022/07/21 00:00:05;;;;;;;8.65;7.75;;;;;;;;;;5072075;28;20209;-85
2022/07/21 00:02:32;;;;;;;11.38;7.47;;;;;;;;;;5071661;28;20225;-85
2022/07/21 00:05:00;;;;;;;9.55;7.53;;;;;;;;;;5071601;28;20240;-85
2022/07/21 00:07:27;;;;;;;9.00;7.35;;;;;;;;;;5071439;28;20213;-85
2022/07/21 00:09:55;;;;;;;9.25;7.07;;;;;;;;;;5072258;28;20208;-85
2022/07/21 00:12:22;;;;;;;8.57;7.07;;;;;;;;;;5071505;28;20205;-85
2022/07/21 00:14:49;;;;;;;8.32;7.60;;;;;;;;;;5071602;28;20232;-85
2022/07/21 00:17:16;;;;;;;8.55;7.18;;;;;;;;;;5072168;28;20213;-85
2022/07/21 00:19:43;;;;;;;9.38;7.38;;;;;;;;;;5071335;28;20233;-84
2022/07/21 00:22:12;;;;;;;7.78;6.90;;;;;;;;;;5072240;28;20316;-84
2022/07/21 00:24:39;;;;;;;9.10;7.32;;;;;;;;;;5071977;28;20229;-84
2022/07/21 00:27:06;;;;;;;8.02;7.22;;;;;;;;;;5076311;28;20213;-85
2022/07/21 00:29:33;;;;;;;11.55;7.55;;;;;;;;;;5075724;28;20748;-85
2022/07/21 00:32:00;;;;;;;8.18;7.32;;;;;;;;;;5076071;28;20216;-84
2022/07/21 00:34:27;;;;;;;7.40;6.70;;;;;;;;;;5074960;28;20256;-85
2022/07/21 00:36:54;;;;;;;8.15;6.80;;;;;;;;;;5075371;28;20660;-84
2022/07/21 00:39:23;;;;;;;8.13;6.95;;;;;;;;;;5075326;28;20240;-85
2022/07/21 00:41:50;;;;;;;9.70;7.47;;;;;;;;;;5075892;28;20209;-85
2022/07/21 00:44:21;;;;;;;8.55;6.47;;;;;;;;;;5075692;28;20647;-84
2022/07/21 00:46:48;;;;;;;6.82;6.13;;;;;;;;;;5076356;28;20201;-85
2022/07/21 00:49:15;;;;;;;7.88;7.07;;;;;;;;;;5075484;28;20244;-85
2022/07/21 00:51:42;;;;;;;7.80;6.75;;;;;;;;;;5076281;28;20206;-85
2022/07/21 00:54:09;;;;;;;9.18;7.43;;;;;;;;;;5075357;28;20241;-85
2022/07/21 00:56:38;;;;;;;11.50;7.53;;;;;;;;;;5076113;28;20209;-85
2022/07/21 00:59:05;;;;;;;8.30;6.85;;;;;;;;;;5073444;28;20234;-85
2022/07/21 01:01:32;;;;;;;7.05;6.35;;;;;;;;;;5075961;28;20210;-85
2022/07/21 01:03:59;;;;;;;10.52;7.25;;;;;;;;;;5074227;28;20241;-85
2022/07/21 01:06:26;;;;;;;9.82;6.90;;;;;;;;;;5074835;28;20209;-85
2022/07/21 01:08:54;;;;;;;10.45;7.13;;;;;;;;;;5075640;28;20236;-85
2022/07/21 01:11:21;;;;;;;9.57;6.80;;;;;;;;;;5076176;28;20202;-85
2022/07/21 01:13:50;;;;;;;7.43;6.72;;;;;;;;;;5075725;28;20237;-85
2022/07/21 01:16:17;;;;;;;6.88;6.28;;;;;;;;;;5076107;28;20201;-85
2022/07/21 01:18:44;;;;;;;9.02;6.20;;;;;;;;;;5075525;28;20239;-85
2022/07/21 01:21:25;;;;;;;6.68;5.97;;;;;;;;;;5086099;28;20209;-85
2022/07/21 01:23:52;;;;;;;7.78;6.03;;;;;;;;;;5089129;28;20232;-86
2022/07/21 01:26:19;;;;;;;7.00;5.97;;;;;;;;;;5065666;28;20696;-85
2022/07/21 01:28:46;;;;;;;8.25;6.22;;;;;;;;;;5055006;28;20753;-86
2022/07/21 01:31:14;;;;;;;6.95;6.25;;;;;;;;;;5055227;28;20182;-86
2022/07/21 01:33:41;;;;;;;6.85;6.10;;;;;;;;;;5054436;28;20241;-86
2022/07/21 01:36:08;;;;;;;8.68;6.65;;;;;;;;;;5054948;28;20210;-87
2022/07/21 01:41:31;;;;;;;8.65;6.97;;;;;;;;;;5075153;28;20619;-86
2022/07/21 01:43:59;;;;;;;7.70;6.70;;;;;;;;;;5074167;28;20252;-86
2022/07/21 01:46:26;;;;;;;11.75;7.85;;;;;;;;;;5075039;28;20201;-85
2022/07/21 01:48:54;;;;;;;8.68;7.13;;;;;;;;;;5074272;28;20233;-86
2022/07/21 01:51:21;;;;;;;8.45;7.65;;;;;;;;;;5074620;28;20692;-86
2022/07/21 01:53:49;;;;;;;9.55;8.55;;;;;;;;;;5074130;28;20244;-87
2022/07/21 01:56:19;;;;;;;12.70;8.65;;;;;;;;;;5075286;28;20717;-87
2022/07/21 01:58:47;;;;;;;10.32;9.25;;;;;;;;;;5074241;28;20233;-87
2022/07/21 02:01:14;;;;;;;12.82;10.05;;;;;;;;;;5078076;28;20201;-85
2022/07/21 02:03:41;;;;;;;12.07;10.48;;;;;;;;;;5076228;28;20243;-87
2022/07/21 02:06:08;;;;;;;13.40;11.13;;;;;;;;;;5074498;28;20202;-86
2022/07/21 02:08:35;;;;;;;13.77;11.20;;;;;;;;;;5073847;28;20291;-87
2022/07/21 02:11:04;;;;;;;14.57;10.75;;;;;;;;;;5074374;28;20208;-86
2022/07/21 02:13:31;;;;;;;13.60;11.30;;;;;;;;;;5073635;28;20221;-87
2022/07/21 02:15:58;;;;;;;13.70;11.85;;;;;;;;;;5073814;28;20680;-87
2022/07/21 02:18:25;;;;;;;12.95;11.65;;;;;;;;;;5074029;28;20237;-87
2022/07/21 02:20:53;;;;;;;13.27;11.85;;;;;;;;;;5073973;28;20209;-87
2022/07/21 02:23:20;;;;;;;13.40;11.45;;;;;;;;;;5073313;28;20241;-87
2022/07/21 02:25:47;;;;;;;14.32;12.02;;;;;;;;;;5074021;28;20206;-87
2022/07/21 02:28:15;;;;;;;13.32;11.73;;;;;;;;;;5073369;28;20239;-87
2022/07/21 02:30:43;;;;;;;13.45;11.38;;;;;;;;;;5073513;28;20653;-88
2022/07/21 02:33:10;;;;;;;14.90;11.48;;;;;;;;;;5073221;28;20233;-87
2022/07/21 02:35:37;;;;;;;14.52;11.70;;;;;;;;;;5074092;28;20209;-86
2022/07/21 02:38:04;;;;;;;15.93;12.20;;;;;;;;;;5073064;28;20222;-87
2022/07/21 02:40:32;;;;;;;13.32;11.93;;;;;;;;;;5073874;28;20194;-87
2022/07/21 02:42:59;;;;;;;16.88;12.63;;;;;;;;;;5072953;28;20241;-85
2022/07/21 02:45:27;;;;;;;12.77;11.48;;;;;;;;;;5073796;28;20236;-87
2022/07/21 02:47:55;;;;;;;14.00;11.70;;;;;;;;;;5074764;28;20240;-86
2022/07/21 02:50:23;;;;;;;12.25;10.77;;;;;;;;;;5082307;28;20206;-87
2022/07/21 02:52:50;;;;;;;12.70;11.40;;;;;;;;;;5084666;28;20236;-87
2022/07/21 02:55:17;;;;;;;13.20;10.93;;;;;;;;;;5072744;28;20252;-87
2022/07/21 02:57:44;;;;;;;15.27;11.32;;;;;;;;;;5074029;28;20260;-87
2022/07/21 03:00:12;;;;;;;11.10;9.45;;;;;;;;;;5073232;28;20201;-86
2022/07/21 03:02:40;;;;;;;16.02;11.60;;;;;;;;;;5071531;28;20328;-86
2022/07/21 03:05:08;;;;;;;12.38;10.85;;;;;;;;;;5072995;28;20233;-86
2022/07/21 03:07:35;;;;;;;14.32;11.50;;;;;;;;;;5072184;28;20653;-86
2022/07/21 03:10:02;;;;;;;15.05;11.85;;;;;;;;;;5073108;28;20213;-86
2022/07/21 03:12:29;;;;;;;14.00;11.43;;;;;;;;;;5072858;28;20220;-84
2022/07/21 03:14:56;;;;;;;12.85;9.98;;;;;;;;;;5072862;28;20697;-87
2022/07/21 03:17:23;;;;;;;11.40;10.20;;;;;;;;;;5072221;28;20676;-86
2022/07/21 03:19:52;;;;;;;11.93;10.43;;;;;;;;;;5072964;28;20209;-85
2022/07/21 03:22:19;;;;;;;12.73;10.57;;;;;;;;;;5071946;28;20209;-85
2022/07/21 03:24:46;;;;;;;10.95;9.55;;;;;;;;;;5067657;28;20257;-84
2022/07/21 03:27:13;;;;;;;12.07;10.35;;;;;;;;;;5052786;28;20213;-86
2022/07/21 03:29:40;;;;;;;13.05;9.93;;;;;;;;;;5052305;28;20615;-86
2022/07/21 03:32:07;;;;;;;10.38;9.30;;;;;;;;;;5052403;28;20202;-85
2022/07/21 03:34:34;;;;;;;11.10;9.63;;;;;;;;;;5052505;28;20241;-87
2022/07/21 03:37:03;;;;;;;14.43;10.40;;;;;;;;;;5052572;28;20616;-85
2022/07/21 03:39:30;;;;;;;10.90;9.75;;;;;;;;;;5052075;28;20233;-84
2022/07/21 03:41:57;;;;;;;10.90;9.75;;;;;;;;;;5052695;28;20213;-86
2022/07/21 03:44:24;;;;;;;12.60;9.90;;;;;;;;;;5051677;28;20253;-86
2022/07/21 03:46:51;;;;;;;10.25;9.15;;;;;;;;;;5052671;28;20560;-86
2022/07/21 03:49:18;;;;;;;9.82;8.82;;;;;;;;;;5052196;28;20245;-85
2022/07/21 03:51:45;;;;;;;11.32;8.85;;;;;;;;;;5052296;28;20209;-87
2022/07/21 03:54:13;;;;;;;10.90;8.55;;;;;;;;;;5051721;28;20233;-86
2022/07/21 03:56:40;;;;;;;12.93;9.35;;;;;;;;;;5052924;28;20209;-86
2022/07/21 03:59:07;;;;;;;12.40;9.63;;;;;;;;;;5051939;28;20237;-86
2022/07/21 04:01:34;;;;;;;9.88;8.65;;;;;;;;;;5054702;28;20613;-86
2022/07/21 04:04:01;;;;;;;9.82;8.75;;;;;;;;;;5051564;28;20698;-86
2022/07/21 04:06:28;;;;;;;10.57;8.30;;;;;;;;;;5052230;28;20198;-86
2022/07/21 04:08:55;;;;;;;10.38;7.88;;;;;;;;;;5051731;28;20241;-86
2022/07/21 04:11:24;;;;;;;10.02;8.27;;;;;;;;;;5052381;28;20225;-85
2022/07/21 04:13:51;;;;;;;9.27;7.80;;;;;;;;;;5061929;28;20240;-86
2022/07/21 04:16:18;;;;;;;10.82;8.60;;;;;;;;;;5072223;28;20210;-86
2022/07/21 04:18:45;;;;;;;9.75;8.10;;;;;;;;;;5072014;28;20244;-88
2022/07/21 04:21:12;;;;;;;8.63;7.68;;;;;;;;;;5072228;28;20209;-86
2022/07/21 04:23:39;;;;;;;8.57;7.68;;;;;;;;;;5071818;28;20354;-86
2022/07/21 04:26:06;;;;;;;11.95;7.95;;;;;;;;;;5073931;28;20228;-88
2022/07/21 04:28:35;;;;;;;9.75;8.38;;;;;;;;;;5073054;28;20233;-87
2022/07/21 04:31:02;;;;;;;9.30;8.40;;;;;;;;;;5073868;28;20213;-87
2022/07/21 04:33:29;;;;;;;8.95;8.05;;;;;;;;;;5073902;28;20241;-87
2022/07/21 04:35:56;;;;;;;11.95;8.25;;;;;;;;;;5075474;28;20194;-87
2022/07/21 04:38:24;;;;;;;15.23;8.75;;;;;;;;;;5075185;28;20244;-87
2022/07/21 04:40:51;;;;;;;9.45;8.35;;;;;;;;;;5076552;28;20206;-87
2022/07/21 04:43:18;;;;;;;9.70;8.10;;;;;;;;;;5072189;28;20240;-86
2022/07/21 04:45:46;;;;;;;9.45;8.27;;;;;;;;;;5073970;28;20209;-87
2022/07/21 04:48:13;;;;;;;10.65;7.38;;;;;;;;;;5073961;28;20701;-86
2022/07/21 04:50:40;;;;;;;9.15;7.75;;;;;;;;;;5073750;28;20697;-86
2022/07/21 04:53:09;;;;;;;8.63;6.20;;;;;;;;;;5071638;28;20229;-86
2022/07/21 04:55:36;;;;;;;6.85;6.00;;;;;;;;;;5070693;22;20363;-88
2022/07/21 04:58:06;;;;;;;8.07;5.60;;;;;;;;;;5051905;28;20234;-88
2022/07/21 05:00:33;;;;;;;5.88;5.38;;;;;;;;;;5052859;28;20206;-91
2022/07/21 05:03:02;;;;;;;5.80;5.30;;;;;;;;;;5052939;28;20238;-90
2022/07/21 05:05:29;;;;;;;5.40;4.68;;;;;;;;;;5052202;28;20218;-87
2022/07/21 05:07:56;;;;;;;5.10;4.63;;;;;;;;;;5053063;28;20357;-87
2022/07/21 05:10:24;;;;;;;7.43;5.18;;;;;;;;;;5052237;28;20207;-88
2022/07/21 05:12:51;;;;;;;4.90;4.40;;;;;;;;;;5055370;28;20241;-90
2022/07/21 05:15:18;;;;;;;4.50;4.10;;;;;;;;;;5056520;28;20218;-89
2022/07/21 05:17:45;;;;;;;6.35;4.65;;;;;;;;;;5055491;28;20295;-89
2022/07/21 05:20:14;;;;;;;5.50;4.40;;;;;;;;;;5056040;28;20206;-90
2022/07/21 05:22:41;;;;;;;4.95;4.55;;;;;;;;;;5055584;28;20245;-89
2022/07/21 05:25:09;;;;;;;5.28;4.10;;;;;;;;;;5056261;28;20252;-91
2022/07/21 05:27:36;;;;;;;4.88;4.47;;;;;;;;;;5055215;28;20205;-89
2022/07/21 05:30:04;;;;;;;5.38;4.88;;;;;;;;;;5055732;28;20650;-89
2022/07/21 05:32:31;;;;;;;6.20;5.00;;;;;;;;;;5055452;28;20214;-89
2022/07/21 05:34:58;;;;;;;6.78;4.93;;;;;;;;;;5056182;28;20582;-89
2022/07/21 05:37:27;;;;;;;4.95;4.45;;;;;;;;;;5055147;28;20229;-89
2022/07/21 05:39:54;;;;;;;5.82;5.13;;;;;;;;;;5055668;28;20217;-89
2022/07/21 05:42:21;;;;;;;7.20;4.97;;;;;;;;;;5054756;28;20202;-89
2022/07/21 05:44:48;;;;;;;6.22;5.47;;;;;;;;;;5055068;28;20226;-88
2022/07/21 05:47:15;;;;;;;5.32;4.18;;;;;;;;;;5055374;28;20226;-89
2022/07/21 05:49:42;;;;;;;5.18;4.60;;;;;;;;;;5054927;28;20264;-90
2022/07/21 05:52:10;;;;;;;6.90;4.20;;;;;;;;;;5055344;28;20214;-89
2022/07/21 05:54:38;;;;;;;5.45;4.32;;;;;;;;;;5055945;28;20230;-89
2022/07/21 05:57:05;;;;;;;8.35;5.18;;;;;;;;;;5055480;28;20213;-87
2022/07/21 05:59:32;;;;;;;5.53;4.82;;;;;;;;;;5055445;28;20229;-88
2022/07/21 06:02:00;;;;;;;5.97;4.75;;;;;;;;;;5055315;28;20237;-90
2022/07/21 06:04:27;;;;;;;7.13;4.80;;;;;;;;;;5054123;28;20234;-85
2022/07/21 06:06:54;;;;;;;5.18;4.38;;;;;;;;;;5055937;28;20205;-86
2022/07/21 06:09:22;;;;;;;5.75;4.20;;;;;;;;;;5056336;28;20243;-84
2022/07/21 06:11:53;;;;;;;6.22;4.68;;;;;;;;;;5056794;28;20206;-85
2022/07/21 06:14:20;;;;;;;7.38;4.47;;;;;;;;;;5055525;28;20237;-87
2022/07/21 06:16:47;;;;;;;4.25;3.92;;;;;;;;;;5055499;28;20198;-86
2022/07/21 06:19:14;;;;;;;6.50;4.60;;;;;;;;;;5055166;28;20242;-89
2022/07/21 06:21:41;;;;;;;4.50;4.10;;;;;;;;;;5056917;28;20202;-89
2022/07/21 06:24:08;;;;;;;5.65;4.50;;;;;;;;;;5054054;28;20256;-87
2022/07/21 06:26:36;;;;;;;4.38;4.00;;;;;;;;;;5054416;28;20206;-85
2022/07/21 06:29:04;;;;;;;6.57;4.20;;;;;;;;;;5054151;28;20241;-89
2022/07/21 06:31:31;;;;;;;5.03;4.53;;;;;;;;;;5055222;28;20206;-87
2022/07/21 06:33:58;;;;;;;4.75;4.25;;;;;;;;;;5054543;28;20250;-87
2022/07/21 06:36:25;;;;;;;5.85;4.95;;;;;;;;;;5054902;28;20275;-87
2022/07/21 06:38:52;;;;;;;8.23;5.28;;;;;;;;;;5054798;28;20237;-86
2022/07/21 06:41:19;;;;;;;6.63;5.45;;;;;;;;;;5054553;28;20187;-84
2022/07/21 06:43:47;;;;;;;6.65;5.30;;;;;;;;;;5053413;28;20238;-88
2022/07/21 06:46:18;;;;;;;5.53;5.03;;;;;;;;;;5054571;28;20572;-89
2022/07/21 06:48:45;;;;;;;6.75;5.28;;;;;;;;;;5053952;28;20237;-88
2022/07/21 06:51:12;;;;;;;5.22;4.70;;;;;;;;;;5054532;28;20204;-88
2022/07/21 06:53:39;;;;;;;5.00;4.53;;;;;;;;;;5053891;28;20237;-89
2022/07/21 06:56:14;;;;;;;6.07;4.50;;;;;;;;;;5054548;28;20205;-89
2022/07/21 06:58:41;;;;;;;4.90;4.25;;;;;;;;;;5053601;28;20233;-88
2022/07/21 07:01:09;;;;;;;6.10;4.78;;;;;;;;;;5063480;28;20204;-89
2022/07/21 07:03:40;;;;;;;5.07;4.53;;;;;;;;;;5057634;28;20233;-86
2022/07/21 07:06:08;;;;;;;5.75;4.68;;;;;;;;;;5065874;28;20202;-80
2022/07/21 07:08:36;;;;;;;5.57;4.68;;;;;;;;;;5062865;28;20233;-82
2022/07/21 07:11:03;;;;;;;5.25;4.53;;;;;;;;;;5055445;28;20206;-82
2022/07/21 07:13:30;;;;;;;5.03;3.95;;;;;;;;;;5055007;28;20616;-82
2022/07/21 07:15:58;;;;;;;5.45;4.30;;;;;;;;;;5055904;28;20225;-82
2022/07/21 07:18:25;;;;;;;5.38;4.25;;;;;;;;;;5057870;28;20234;-82
2022/07/21 07:20:53;;;;;;;5.03;4.18;;;;;;;;;;5077988;28;20746;-81
2022/07/21 07:23:21;;;;;;;4.60;4.03;;;;;;;;;;5079558;28;20233;-82
2022/07/21 07:25:48;;;;;;;4.25;3.85;;;;;;;;;;5081913;28;20244;-82
2022/07/21 07:28:15;;;;;;;5.00;4.50;;;;;;;;;;5080702;28;20734;-83
2022/07/21 07:30:42;;;;;;;5.25;4.30;;;;;;;;;;5079791;28;20213;-82
2022/07/21 07:33:09;;;;;;;4.38;3.97;;;;;;;;;;5078145;28;20237;-84
2022/07/21 07:35:36;;;;;;;4.75;3.90;;;;;;;;;;5078113;28;20253;-83
2022/07/21 07:38:05;;;;;;;4.90;4.10;;;;;;;;;;5076174;28;20611;-84
2022/07/21 07:40:32;;;;;;;4.22;3.47;;;;;;;;;;5077136;28;20201;-84
2022/07/21 07:42:59;;;;;;;6.35;4.53;;;;;;;;;;5079098;28;20241;-83
2022/07/21 07:45:28;;;;;;;4.35;3.95;;;;;;;;;;5081062;28;20229;-83
2022/07/21 07:47:55;;;;;;;4.55;4.10;;;;;;;;;;5078753;28;20316;-83
2022/07/21 07:50:22;;;;;;;5.65;3.78;;;;;;;;;;5063277;28;20198;-84
2022/07/21 07:52:49;;;;;;;4.70;3.90;;;;;;;;;;5062017;28;20248;-84
2022/07/21 07:55:18;;;;;;;4.50;4.10;;;;;;;;;;5077232;28;20232;-84
2022/07/21 07:57:45;;;;;;;4.30;3.90;;;;;;;;;;5055752;28;20249;-84
2022/07/21 08:00:14;;;;;;;4.25;3.85;;;;;;;;;;5053928;28;20204;-84
2022/07/21 08:02:41;;;;;;;4.22;3.85;;;;;;;;;;5064722;28;20233;-83
2022/07/21 08:05:09;;;;;;;5.13;3.60;;;;;;;;;;5074988;28;20256;-84
2022/07/21 08:07:37;;;;;;;4.10;3.53;;;;;;;;;;5073585;28;20568;-88
2022/07/21 08:10:05;;;;;;;4.72;4.20;;;;;;;;;;5073704;28;20240;-88
2022/07/21 08:12:33;;;;;;;3.97;3.63;;;;;;;;;;5072456;28;20570;-90
2022/07/21 08:15:00;;;;;;;4.43;3.83;;;;;;;;;;5072630;28;20728;-93
2022/07/21 08:17:27;;;;;;;4.75;4.03;;;;;;;;;;5072378;28;20209;-89
2022/07/21 08:19:54;;;;;;;4.53;4.10;;;;;;;;;;5073166;28;20209;-89
2022/07/21 08:22:21;;;;;;;4.22;3.83;;;;;;;;;;5072309;28;20661;-87
2022/07/21 08:24:49;;;;;;;4.65;4.20;;;;;;;;;;5073340;28;20618;-89
2022/07/21 08:27:18;;;;;;;4.43;4.03;;;;;;;;;;5072794;28;20684;-90
2022/07/21 08:29:47;;;;;;;4.25;3.58;;;;;;;;;;5072864;28;20221;-91
2022/07/21 08:32:14;;;;;;;3.72;3.42;;;;;;;;;;5074279;28;20267;-90
2022/07/21 08:34:41;;;;;;;4.82;3.95;;;;;;;;;;5072846;28;20229;-91
2022/07/21 08:37:08;;;;;;;3.70;3.40;;;;;;;;;;5073951;28;20209;-90
2022/07/21 08:39:35;;;;;;;4.57;3.60;;;;;;;;;;5072573;28;20233;-91
2022/07/21 08:42:02;;;;;;;4.90;3.67;;;;;;;;;;5073704;28;20197;-90
2022/07/21 08:44:30;;;;;;;4.93;3.58;;;;;;;;;;5072182;28;20712;-90
2022/07/21 08:46:58;;;;;;;4.28;3.47;;;;;;;;;;5074556;28;20198;-91
2022/07/21 08:49:26;;;;;;;3.75;3.38;;;;;;;;;;5077320;28;20237;-87
2022/07/21 08:51:53;;;;;;;4.75;4.35;;;;;;;;;;5077506;28;20209;-90
2022/07/21 08:54:21;;;;;;;4.70;3.53;;;;;;;;;;5076701;28;20239;-88
2022/07/21 08:56:48;;;;;;;3.17;2.97;;;;;;;;;;5087546;28;20215;-89
2022/07/21 08:59:15;;;;;;;3.60;3.30;;;;;;;;;;5076378;28;20237;-91
2022/07/21 09:01:43;;;;;;;4.38;3.60;;;;;;;;;;5076629;28;20208;-91
2022/07/21 09:04:21;;;;;;;4.93;3.58;;;;;;;;;;5076388;28;20234;-91
2022/07/21 09:06:53;;;;;;;5.30;4.00;;;;;;;;;;5077320;28;20209;-90
2022/07/21 09:09:21;;;;;;;6.30;3.75;;;;;;;;;;5057003;28;20283;-88
2022/07/21 09:11:48;;;;;;;6.18;4.25;;;;;;;;;;5055704;28;20241;-91
2022/07/21 09:14:18;;;;;;;3.72;3.20;;;;;;;;;;5054604;28;20233;-92
2022/07/21 09:16:48;;;;;;;3.55;3.22;;;;;;;;;;5056472;28;20214;-90
2022/07/21 09:19:19;;;;;;;4.85;3.30;;;;;;;;;;5056316;28;20705;-92
2022/07/21 09:21:48;;;;;;;3.97;3.50;;;;;;;;;;5056637;28;20198;-91
2022/07/21 09:24:20;;;;;;;3.88;3.42;;;;;;;;;;5056639;28;20245;-91
2022/07/21 09:27:02;;;;;;;4.30;3.70;;;;;;;;;;5056827;28;20194;-91
2022/07/21 09:29:34;;;;;;;4.63;3.78;;;;;;;;;;5055309;28;20283;-87
2022/07/21 09:32:12;;;;;;;4.32;3.83;;;;;;;;;;5055785;28;20206;-87
2022/07/21 09:34:39;;;;;;;4.80;3.95;;;;;;;;;;5055563;28;20245;-91
2022/07/21 09:37:08;;;;;;;5.82;4.30;;;;;;;;;;5056131;28;20210;-91
2022/07/21 09:39:42;;;;;;;6.03;3.65;;;;;;;;;;5056819;28;20241;-91
2022/07/21 09:42:16;;;;;;;5.25;3.97;;;;;;;;;;5056438;28;20673;-92
2022/07/21 09:44:44;;;;;;;4.28;3.88;;;;;;;;;;5056243;28;20317;-91
2022/07/21 09:47:13;;;;;;;4.40;4.00;;;;;;;;;;5057004;28;20202;-91
2022/07/21 09:49:40;;;;;;;5.80;4.55;;;;;;;;;;5055639;28;20653;-91
2022/07/21 09:52:20;;;;;;;7.38;5.03;;;;;;;;;;5056045;28;20288;-91
2022/07/21 09:54:47;;;;;;;4.50;4.10;;;;;;;;;;5055747;28;20292;-90
2022/07/21 09:57:15;;;;;;;4.30;3.83;;;;;;;;;;5055919;28;20583;-91
2022/07/21 09:59:44;;;;;;;4.40;3.90;;;;;;;;;;5055833;28;20241;-91
2022/07/21 10:02:16;;;;;;;4.00;3.60;;;;;;;;;;5056196;28;20792;-90
2022/07/21 10:04:43;;;;;;;5.13;4.00;;;;;;;;;;5055182;28;20260;-91
2022/07/21 10:07:10;;;;;;;3.38;3.08;;;;;;;;;;5057035;28;20206;-90
2022/07/21 10:09:39;;;;;;;5.00;3.70;;;;;;;;;;5065646;28;20242;-90
2022/07/21 10:12:06;;;;;;;3.75;3.45;;;;;;;;;;5056125;28;20225;-91
2022/07/21 10:14:33;;;;;;;3.53;3.22;;;;;;;;;;5055265;28;20628;-90
2022/07/21 10:17:00;;;;;;;5.25;3.75;;;;;;;;;;5056005;28;20209;-90
2022/07/21 10:19:29;;;;;;;5.32;3.33;;;;;;;;;;5054549;28;20234;-91
2022/07/21 10:21:58;;;;;;;4.88;2.92;;;;;;;;;;5055851;28;20198;-89
2022/07/21 10:24:28;;;;;;;3.65;3.13;;;;;;;;;;5055038;28;20248;-88
2022/07/21 10:27:06;;;;;;;3.45;3.22;;;;;;;;;;5055752;28;20210;-89
2022/07/21 10:29:53;;;;;;;3.70;3.40;;;;;;;;;;5033937;28;20234;-89
2022/07/21 10:32:21;;;;;;;4.20;3.00;;;;;;;;;;5034650;28;20203;-89
2022/07/21 10:34:48;;;;;;;3.67;3.10;;;;;;;;;;5034382;28;20218;-90
2022/07/21 10:37:46;;;;;;;3.90;3.08;;;;;;;;;;5050345;28;20737;-90
2022/07/21 10:40:32;;;;;;;3.40;3.10;;;;;;;;;;5053978;28;20237;-89
2022/07/21 10:43:14;;;;;;;3.15;2.78;;;;;;;;;;5054211;28;20309;-84
2022/07/21 10:45:43;;;;;;;5.00;3.25;;;;;;;;;;5054650;28;20237;-85
2022/07/21 10:48:30;;;;;;;6.13;3.65;;;;;;;;;;5053830;28;20226;-88
2022/07/21 10:50:59;;;;;;;3.60;3.30;;;;;;;;;;5060626;28;20206;-90
2022/07/21 10:53:26;;;;;;;5.43;3.58;;;;;;;;;;5066126;28;20296;-89
2022/07/21 10:55:54;;;;;;;3.53;3.22;;;;;;;;;;5082645;22;20212;-85
2022/07/21 10:58:27;;;;;;;4.90;3.58;;;;;;;;;;5072411;28;20229;-86
2022/07/21 11:00:56;;;;;;;3.25;3.05;;;;;;;;;;5072915;28;20193;-85
2022/07/21 11:03:25;;;;;;;3.50;3.20;;;;;;;;;;5072455;28;20326;-86
2022/07/21 11:06:12;;;;;;;4.82;3.45;;;;;;;;;;5075193;28;20229;-86
2022/07/21 11:08:40;;;;;;;3.10;2.80;;;;;;;;;;5092216;28;20239;-84
2022/07/21 11:11:10;;;;;;;3.40;2.95;;;;;;;;;;5091744;28;20213;-85
2022/07/21 11:13:52;;;;;;;3.70;3.20;;;;;;;;;;5092367;28;20614;-85
2022/07/21 11:16:20;;;;;;;3.85;3.35;;;;;;;;;;5092559;28;20593;-85
2022/07/21 11:18:47;;;;;;;3.50;3.20;;;;;;;;;;5091914;28;20741;-84
2022/07/21 11:21:15;;;;;;;3.25;2.92;;;;;;;;;;5093144;28;20208;-85
2022/07/21 11:23:43;;;;;;;3.28;2.97;;;;;;;;;;5092103;27;20243;-86
2022/07/21 11:26:12;;;;;;;3.03;2.70;;;;;;;;;;5091936;28;20240;-86
2022/07/21 11:28:39;;;;;;;3.10;2.80;;;;;;;;;;5091777;27;20240;-85
2022/07/21 11:31:14;;;;;;;3.20;2.90;;;;;;;;;;5092146;28;20236;-86
2022/07/21 11:33:43;;;;;;;2.97;2.58;;;;;;;;;;5093439;28;20259;-87
2022/07/21 11:36:10;;;;;;;4.00;3.10;;;;;;;;;;5112206;28;20703;-86
2022/07/21 11:38:37;;;;;;;2.88;2.53;;;;;;;;;;5111898;28;20238;-86
2022/07/21 11:41:14;;;;;;;3.28;2.95;;;;;;;;;;5112329;28;20208;-85
2022/07/21 11:43:42;;;;;;;3.13;2.92;;;;;;;;;;5111690;28;20649;-86
2022/07/21 11:46:09;;;;;;;3.47;3.10;;;;;;;;;;5112299;28;20231;-86
2022/07/21 11:48:36;;;;;;;3.30;2.70;;;;;;;;;;5111831;28;20285;-86
2022/07/21 11:51:05;;;;;;;3.80;2.78;;;;;;;;;;5112675;28;20257;-85
2022/07/21 11:53:33;;;;;;;2.88;2.67;;;;;;;;;;5111690;28;20710;-86
2022/07/21 11:56:00;;;;;;;4.13;2.70;;;;;;;;;;5111976;28;20718;-85
2022/07/21 11:58:27;;;;;;;3.35;3.00;;;;;;;;;;5111663;28;20239;-86
2022/07/21 12:01:05;;;;;;;6.32;2.65;;;;;;;;;;5112004;28;20207;-85
2022/07/21 12:03:32;;;;;;;2.83;2.58;;;;;;;;;;5111710;28;20314;-87
2022/07/21 12:06:00;;;;;;;3.58;2.58;;;;;;;;;;5112231;28;20231;-87
2022/07/21 12:08:29;;;;;;;2.25;2.15;;;;;;;;;;5111659;28;20235;-85
2022/07/21 12:11:05;;;;;;;3.10;2.25;;;;;;;;;;5112242;28;20204;-83
2022/07/21 12:13:32;;;;;;;2.55;2.35;;;;;;;;;;5110585;28;20314;-84
2022/07/21 12:15:59;;;;;;;3.08;2.50;;;;;;;;;;5092016;28;20228;-85
2022/07/21 12:18:26;;;;;;;3.25;2.08;;;;;;;;;;5091676;27;20232;-84
2022/07/21 12:21:02;;;;;;;2.20;2.10;;;;;;;;;;5093220;28;20216;-83
2022/07/21 12:23:32;;;;;;;2.85;2.30;;;;;;;;;;5095780;27;20235;-86
2022/07/21 12:26:00;;;;;;;2.53;2.33;;;;;;;;;;5096350;28;20236;-86
2022/07/21 12:28:43;;;;;;;2.47;2.28;;;;;;;;;;5095976;27;20239;-87
2022/07/21 12:31:14;;;;;;;3.60;2.45;;;;;;;;;;5096421;28;20236;-87
2022/07/21 12:33:41;;;;;;;3.20;2.80;;;;;;;;;;5095965;27;20258;-86
2022/07/21 12:36:09;;;;;;;2.65;2.45;;;;;;;;;;5096324;28;20251;-87
2022/07/21 12:38:41;;;;;;;2.90;2.60;;;;;;;;;;5095180;27;20615;-86
2022/07/21 12:41:08;;;;;;;4.10;2.65;;;;;;;;;;5095878;28;20208;-85
2022/07/21 12:43:36;;;;;;;3.17;2.53;;;;;;;;;;5095203;27;20662;-83
2022/07/21 12:46:04;;;;;;;6.20;2.95;;;;;;;;;;5095617;28;20224;-84
2022/07/21 12:48:32;;;;;;;3.47;2.70;;;;;;;;;;5095106;27;20260;-85
2022/07/21 12:51:04;;;;;;;2.78;2.58;;;;;;;;;;5095809;28;20299;-84
2022/07/21 12:53:32;;;;;;;2.97;2.78;;;;;;;;;;5095071;27;20239;-85
2022/07/21 12:56:01;;;;;;;3.55;2.63;;;;;;;;;;5095364;28;20625;-87
2022/07/21 12:58:28;;;;;;;3.47;3.17;;;;;;;;;;5095117;27;20603;-86
2022/07/21 13:00:55;;;;;;;3.38;2.92;;;;;;;;;;5095751;28;20219;-86
2022/07/21 13:03:22;;;;;;;2.65;2.50;;;;;;;;;;5095155;27;20232;-86
2022/07/21 13:05:49;;;;;;;3.05;2.83;;;;;;;;;;5075035;28;20221;-85
2022/07/21 13:08:16;;;;;;;4.95;3.03;;;;;;;;;;5074975;28;20248;-85
2022/07/21 13:10:44;;;;;;;3.33;3.03;;;;;;;;;;5078559;28;20209;-82
2022/07/21 13:13:12;;;;;;;2.95;2.70;;;;;;;;;;5075313;28;20244;-82
2022/07/21 13:15:39;;;;;;;3.33;3.03;;;;;;;;;;5075293;28;20218;-82
2022/07/21 13:18:06;;;;;;;3.60;3.25;;;;;;;;;;5074806;28;20893;-81
2022/07/21 13:20:33;;;;;;;3.70;3.20;;;;;;;;;;5074910;28;20243;-81
2022/07/21 13:23:00;;;;;;;3.83;3.20;;;;;;;;;;5074963;28;20229;-81
2022/07/21 13:25:27;;;;;;;3.80;3.30;;;;;;;;;;5075556;28;20202;-81
2022/07/21 13:27:55;;;;;;;3.10;2.80;;;;;;;;;;5075332;28;20381;-81
2022/07/21 13:30:23;;;;;;;4.60;3.30;;;;;;;;;;5079673;28;20205;-81
2022/07/21 13:32:50;;;;;;;3.28;2.97;;;;;;;;;;5080609;28;20245;-81
2022/07/21 13:35:17;;;;;;;3.08;2.88;;;;;;;;;;5082757;28;20216;-81
2022/07/21 13:37:44;;;;;;;2.83;2.63;;;;;;;;;;5081837;28;20244;-81
2022/07/21 13:40:12;;;;;;;5.20;3.25;;;;;;;;;;5081783;28;20323;-80
2022/07/21 13:42:39;;;;;;;3.95;3.47;;;;;;;;;;5080559;28;20715;-80
2022/07/21 13:45:07;;;;;;;3.60;3.30;;;;;;;;;;5093828;28;20215;-82
2022/07/21 13:47:35;;;;;;;4.68;3.60;;;;;;;;;;5101862;28;20720;-81
2022/07/21 13:50:02;;;;;;;3.75;3.45;;;;;;;;;;5100839;28;20215;-81
2022/07/21 13:52:29;;;;;;;3.72;3.38;;;;;;;;;;5098131;28;20208;-81
2022/07/21 13:54:57;;;;;;;5.80;3.80;;;;;;;;;;5098400;28;20213;-81
2022/07/21 13:57:24;;;;;;;3.97;3.58;;;;;;;;;;5099008;28;20224;-81
2022/07/21 13:59:56;;;;;;;4.20;3.80;;;;;;;;;;5097784;28;20240;-82
2022/07/21 14:02:23;;;;;;;3.88;3.58;;;;;;;;;;5096812;28;20228;-82
2022/07/21 14:04:54;;;;;;;4.25;3.85;;;;;;;;;;5097688;28;20262;-82
2022/07/21 14:07:21;;;;;;;3.90;3.60;;;;;;;;;;5097907;28;20229;-82
2022/07/21 14:09:48;;;;;;;4.00;3.63;;;;;;;;;;5108673;28;20208;-82
2022/07/21 14:12:18;;;;;;;4.63;3.80;;;;;;;;;;5111968;28;20205;-81
2022/07/21 14:14:46;;;;;;;7.03;3.42;;;;;;;;;;5096219;28;20754;-81
2022/07/21 14:17:14;;;;;;;4.20;3.90;;;;;;;;;;5095456;28;20232;-81
2022/07/21 14:19:43;;;;;;;4.72;4.30;;;;;;;;;;5095969;28;20243;-81
2022/07/21 14:22:11;;;;;;;4.45;4.05;;;;;;;;;;5095847;28;20207;-82
2022/07/21 14:27:26;;;;;;;4.22;3.53;;;;;;;;;;5080747;28;20286;-81
2022/07/21 14:29:55;;;;;;;4.03;3.72;;;;;;;;;;5091905;28;20543;-82
2022/07/21 14:32:22;;;;;;;5.03;3.70;;;;;;;;;;5085599;28;20201;-81
2022/07/21 14:34:50;;;;;;;4.38;3.97;;;;;;;;;;5075658;28;20227;-81
2022/07/21 14:37:19;;;;;;;4.60;4.20;;;;;;;;;;5075751;28;20213;-81
2022/07/21 14:39:47;;;;;;;4.60;4.25;;;;;;;;;;5075849;28;20237;-81
2022/07/21 14:42:15;;;;;;;4.65;4.25;;;;;;;;;;5078327;28;20664;-81
2022/07/21 14:44:42;;;;;;;4.00;3.67;;;;;;;;;;5098478;28;20633;-82
2022/07/21 14:47:09;;;;;;;5.82;4.10;;;;;;;;;;5096203;28;20236;-82
2022/07/21 14:49:37;;;;;;;4.18;3.83;;;;;;;;;;5095021;28;20265;-81